createdAt,value
2018-01-17T00:02:00.584Z,5.87
2018-01-17T00:04:28.225Z,5.87
2018-01-17T00:06:55.775Z,6.00
2018-01-17T00:09:23.323Z,6.10
2018-01-17T00:11:50.829Z,6.10
2018-01-17T00:14:18.348Z,5.63
2018-01-17T00:16:45.861Z,6.20
2018-01-17T00:19:13.477Z,5.73
2018-01-17T00:21:41.042Z,6.13
2018-01-17T00:24:08.549Z,5.33
2018-01-17T00:26:36.069Z,5.93
2018-01-17T00:29:03.584Z,5.43
2018-01-17T00:31:31.089Z,5.60
2018-01-17T00:33:58.597Z,6.20
2018-01-17T00:36:26.155Z,5.70
2018-01-17T00:38:53.747Z,5.87
2018-01-17T00:41:21.273Z,6.37
2018-01-17T00:43:48.809Z,6.20
2018-01-17T00:46:16.319Z,5.87
2018-01-17T00:48:43.828Z,5.77
2018-01-17T00:51:11.455Z,5.83
2018-01-17T00:53:38.959Z,5.60
2018-01-17T00:56:06.570Z,6.60
2018-01-17T00:58:34.074Z,5.60
2018-01-17T01:01:01.594Z,6.13
2018-01-17T01:03:29.159Z,6.03
2018-01-17T01:05:56.668Z,6.90
2018-01-17T01:08:24.173Z,6.83
2018-01-17T01:10:51.697Z,6.20
2018-01-17T01:13:19.208Z,6.50
2018-01-17T01:15:46.712Z,6.13
2018-01-17T01:18:14.216Z,6.87
2018-01-17T01:20:41.972Z,6.27
2018-01-17T01:23:09.529Z,7.10
2018-01-17T01:25:37.044Z,7.33
2018-01-17T01:28:04.569Z,6.43
2018-01-17T01:30:32.071Z,6.40
2018-01-17T01:32:59.572Z,7.10
2018-01-17T01:35:27.126Z,6.63
2018-01-17T01:37:54.633Z,6.43
2018-01-17T01:40:22.145Z,6.70
2018-01-17T01:42:49.651Z,6.57
2018-01-17T01:45:17.159Z,7.33
2018-01-17T01:47:44.667Z,6.87
2018-01-17T01:50:12.279Z,7.63
2018-01-17T01:52:39.840Z,6.40
2018-01-17T01:55:07.389Z,6.27
2018-01-17T01:57:34.943Z,6.33
2018-01-17T02:00:02.447Z,6.80
2018-01-17T02:02:29.950Z,6.90
2018-01-17T02:04:57.485Z,6.93
2018-01-17T02:07:24.997Z,6.23
2018-01-17T02:09:52.512Z,7.20
2018-01-17T02:12:20.026Z,6.93
2018-01-17T02:14:47.525Z,6.30
2018-01-17T02:17:15.035Z,6.47
2018-01-17T02:19:42.536Z,6.40
2018-01-17T02:22:10.100Z,6.27
2018-01-17T02:24:37.645Z,7.00
2018-01-17T02:27:05.165Z,6.13
2018-01-17T02:29:32.684Z,6.23
2018-01-17T02:32:00.205Z,6.13
2018-01-17T02:34:27.714Z,6.27
2018-01-17T02:36:55.252Z,5.93
2018-01-17T02:39:22.758Z,7.10
2018-01-17T02:41:50.319Z,6.33
2018-01-17T02:44:17.820Z,6.10
2018-01-17T02:46:45.325Z,6.23
2018-01-17T02:49:12.840Z,5.97
2018-01-17T02:51:40.345Z,6.43
2018-01-17T02:54:07.853Z,6.70
2018-01-17T02:56:35.365Z,6.70
2018-01-17T02:59:02.874Z,6.37
2018-01-17T03:01:30.380Z,6.63
2018-01-17T03:03:57.880Z,6.50
2018-01-17T03:06:25.397Z,6.43
2018-01-17T03:08:52.924Z,6.20
2018-01-17T03:11:20.449Z,6.20
2018-01-17T03:13:47.956Z,6.80
2018-01-17T03:16:15.481Z,6.20
2018-01-17T03:18:42.987Z,5.50
2018-01-17T03:21:10.507Z,5.83
2018-01-17T03:23:38.012Z,5.93
2018-01-17T03:26:05.516Z,6.10
2018-01-17T03:28:33.031Z,6.77
2018-01-17T03:31:00.537Z,5.90
2018-01-17T03:33:28.049Z,5.90
2018-01-17T03:35:55.548Z,6.37
2018-01-17T03:38:23.060Z,6.50
2018-01-17T03:40:50.567Z,6.13
2018-01-17T03:43:18.182Z,6.00
2018-01-17T03:45:45.716Z,6.43
2018-01-17T03:48:13.231Z,6.37
2018-01-17T03:50:40.740Z,6.50
2018-01-17T03:53:08.261Z,5.90
2018-01-17T03:55:35.884Z,7.00
2018-01-17T03:58:03.444Z,6.10
2018-01-17T04:00:31.011Z,6.10
2018-01-17T04:02:58.560Z,6.10
2018-01-17T04:05:26.059Z,6.20
2018-01-17T04:07:53.682Z,5.87
2018-01-17T04:10:21.194Z,6.20
2018-01-17T04:12:48.811Z,6.07
2018-01-17T04:15:16.330Z,5.73
2018-01-17T04:17:43.930Z,5.93
2018-01-17T04:20:11.439Z,6.40
2018-01-17T04:22:38.937Z,6.13
2018-01-17T04:25:06.470Z,6.20
2018-01-17T04:27:33.996Z,6.13
2018-01-17T04:30:01.513Z,5.80
2018-01-17T04:32:29.016Z,6.33
2018-01-17T04:34:56.520Z,5.80
2018-01-17T04:37:24.034Z,6.03
2018-01-17T04:39:51.532Z,6.43
2018-01-17T04:42:19.122Z,5.40
2018-01-17T04:44:46.635Z,5.43
2018-01-17T04:47:14.144Z,6.17
2018-01-17T04:49:41.658Z,5.27
2018-01-17T04:52:09.181Z,6.27
2018-01-17T04:54:36.705Z,5.73
2018-01-17T04:57:04.213Z,6.03
2018-01-17T04:59:31.736Z,5.77
2018-01-17T05:01:59.257Z,5.73
2018-01-17T05:04:26.776Z,5.60
2018-01-17T05:06:54.277Z,5.43
2018-01-17T05:09:21.775Z,5.03
2018-01-17T05:11:49.284Z,5.60
2018-01-17T05:14:16.823Z,5.03
2018-01-17T05:16:44.423Z,5.40
2018-01-17T05:19:11.929Z,4.93
2018-01-17T05:21:39.460Z,4.87
2018-01-17T05:24:06.964Z,5.53
2018-01-17T05:26:34.461Z,5.30
2018-01-17T05:29:01.972Z,4.70
2018-01-17T05:31:29.606Z,5.40
2018-01-17T05:33:57.117Z,5.40
2018-01-17T05:36:24.711Z,5.27
2018-01-17T05:38:52.257Z,5.30
2018-01-17T05:41:19.761Z,5.03
2018-01-17T05:43:47.307Z,5.77
2018-01-17T05:46:14.864Z,5.07
2018-01-17T05:48:42.370Z,5.30
2018-01-17T05:51:09.870Z,5.07
2018-01-17T05:53:37.376Z,5.47
2018-01-17T05:56:05.002Z,5.43
2018-01-17T05:58:32.558Z,5.27
2018-01-17T06:01:00.066Z,6.13
2018-01-17T06:03:27.612Z,6.10
2018-01-17T06:05:55.156Z,5.67
2018-01-17T06:08:22.664Z,5.70
2018-01-17T06:10:50.169Z,5.17
2018-01-17T06:13:17.679Z,5.80
2018-01-17T06:15:45.281Z,4.97
2018-01-17T06:18:12.782Z,5.33
2018-01-17T06:20:40.301Z,5.70
2018-01-17T06:23:07.809Z,5.93
2018-01-17T06:25:35.415Z,5.60
2018-01-17T06:28:02.932Z,5.80
2018-01-17T06:30:30.535Z,5.80
2018-01-17T06:32:58.049Z,5.57
2018-01-17T06:35:25.553Z,5.83
2018-01-17T06:37:53.066Z,5.87
2018-01-17T06:40:20.572Z,6.00
2018-01-17T06:42:48.085Z,6.53
2018-01-17T06:45:15.596Z,6.30
2018-01-17T06:47:43.109Z,6.40
2018-01-17T06:50:10.670Z,6.60
2018-01-17T06:52:38.228Z,6.70
2018-01-17T06:55:05.733Z,6.70
2018-01-17T06:57:33.239Z,7.20
2018-01-17T07:00:00.803Z,7.17
2018-01-17T07:02:28.324Z,7.47
2018-01-17T07:04:55.834Z,7.40
2018-01-17T07:07:23.416Z,7.90
2018-01-17T07:09:50.937Z,7.53
2018-01-17T07:12:18.451Z,7.27
2018-01-17T07:14:45.962Z,8.03
2018-01-17T07:17:13.491Z,6.80
2018-01-17T07:19:41.009Z,7.13
2018-01-17T07:22:08.524Z,7.30
2018-01-17T07:24:36.025Z,8.07
2018-01-17T07:27:03.604Z,8.00
2018-01-17T07:29:31.126Z,8.37
2018-01-17T07:31:58.645Z,8.83
2018-01-17T07:34:26.155Z,9.10
2018-01-17T07:36:53.667Z,9.27
2018-01-17T07:39:21.182Z,8.93
2018-01-17T07:41:48.703Z,9.27
2018-01-17T07:44:16.253Z,8.33
2018-01-17T07:46:43.761Z,9.50
2018-01-17T07:49:11.292Z,8.80
2018-01-17T07:51:38.820Z,8.97
2018-01-17T07:54:06.332Z,8.07
2018-01-17T07:56:33.844Z,8.43
2018-01-17T07:59:01.373Z,8.73
2018-01-17T08:01:28.890Z,9.33
2018-01-17T08:03:56.408Z,8.80
2018-01-17T08:06:23.911Z,8.53
2018-01-17T08:08:51.520Z,9.77
2018-01-17T08:11:19.062Z,11.23
2018-01-17T08:13:46.576Z,9.57
2018-01-17T08:16:14.080Z,8.60
2018-01-17T08:18:41.593Z,8.93
2018-01-17T08:21:09.098Z,9.20
2018-01-17T08:23:36.608Z,8.83
2018-01-17T08:26:04.152Z,9.03
2018-01-17T08:28:31.768Z,9.30
2018-01-17T08:30:59.273Z,9.13
2018-01-17T08:33:26.775Z,9.80
2018-01-17T08:35:54.310Z,9.77
2018-01-17T08:38:21.830Z,9.80
2018-01-17T08:40:49.334Z,10.10
2018-01-17T08:43:16.854Z,10.03
2018-01-17T08:45:44.366Z,9.43
2018-01-17T08:48:11.952Z,9.93
2018-01-17T08:50:39.445Z,10.13
2018-01-17T08:53:07.075Z,9.17
2018-01-17T08:55:34.615Z,10.00
2018-01-17T08:58:02.190Z,9.83
2018-01-17T09:00:29.692Z,10.43
2018-01-17T09:02:57.304Z,9.53
2018-01-17T09:05:24.808Z,10.80
2018-01-17T09:07:52.415Z,11.10
2018-01-17T09:10:19.980Z,11.00
2018-01-17T09:12:47.500Z,10.33
2018-01-17T09:15:15.100Z,9.83
2018-01-17T09:17:42.609Z,10.40
2018-01-17T09:20:10.131Z,10.53
2018-01-17T09:22:37.629Z,9.03
2018-01-17T09:25:05.144Z,9.60
2018-01-17T09:27:32.656Z,8.80
2018-01-17T09:30:00.256Z,9.10
2018-01-17T09:32:27.752Z,7.87
2018-01-17T09:34:55.255Z,7.97
2018-01-17T09:37:22.760Z,8.27
2018-01-17T09:39:50.288Z,7.33
2018-01-17T09:42:17.866Z,6.57
2018-01-17T09:44:45.408Z,6.73
2018-01-17T09:47:12.917Z,6.17
2018-01-17T09:49:40.532Z,6.30
2018-01-17T09:52:08.105Z,6.50
2018-01-17T09:54:35.635Z,6.10
2018-01-17T09:57:03.149Z,6.53
2018-01-17T09:59:30.666Z,6.73
2018-01-17T10:01:58.232Z,6.33
2018-01-17T10:04:25.732Z,6.90
2018-01-17T10:06:53.349Z,6.63
2018-01-17T10:09:20.852Z,6.50
2018-01-17T10:11:48.384Z,6.47
2018-01-17T10:14:15.948Z,6.93
2018-01-17T10:16:43.458Z,6.90
2018-01-17T10:19:10.989Z,6.93
2018-01-17T10:21:38.650Z,7.53
2018-01-17T10:24:06.285Z,7.77
2018-01-17T10:26:33.824Z,6.70
2018-01-17T10:29:01.403Z,6.60
2018-01-17T10:31:28.906Z,6.37
2018-01-17T10:33:56.420Z,7.33
2018-01-17T10:36:23.941Z,8.87
2018-01-17T10:38:51.524Z,24.60
2018-01-17T10:41:19.030Z,31.43
2018-01-17T10:43:46.661Z,32.10
2018-01-17T10:46:14.172Z,30.83
2018-01-17T10:48:41.709Z,25.60
2018-01-17T10:51:09.252Z,18.07
2018-01-17T10:53:36.764Z,15.67
2018-01-17T10:56:04.354Z,13.80
2018-01-17T10:58:31.881Z,13.57
2018-01-17T11:00:59.398Z,13.67
2018-01-17T11:03:26.908Z,11.17
2018-01-17T11:05:54.417Z,8.93
2018-01-17T11:08:22.044Z,9.87
2018-01-17T11:10:49.552Z,9.20
2018-01-17T11:13:17.068Z,8.00
2018-01-17T11:15:44.753Z,7.53
2018-01-17T11:18:12.291Z,7.07
2018-01-17T11:20:39.827Z,7.13
2018-01-17T11:23:07.352Z,7.00
2018-01-17T11:25:34.875Z,6.37
2018-01-17T11:28:02.389Z,6.20
2018-01-17T11:30:29.903Z,5.33
2018-01-17T11:32:57.416Z,5.23
2018-01-17T11:35:24.929Z,6.10
2018-01-17T11:37:52.491Z,4.70
2018-01-17T11:40:19.992Z,4.90
2018-01-17T11:42:47.512Z,5.50
2018-01-17T11:45:15.013Z,5.07
2018-01-17T11:47:42.552Z,5.70
2018-01-17T11:50:10.076Z,5.13
2018-01-17T11:52:37.593Z,5.50
2018-01-17T11:55:05.119Z,5.20
2018-01-17T11:57:32.749Z,5.10
2018-01-17T12:00:00.269Z,5.23
2018-01-17T12:02:27.797Z,5.20
2018-01-17T12:04:55.423Z,5.13
2018-01-17T12:07:22.985Z,4.90
2018-01-17T12:09:50.503Z,4.73
2018-01-17T12:12:18.023Z,5.03
2018-01-17T12:14:45.533Z,5.60
2018-01-17T12:17:13.052Z,5.63
2018-01-17T12:19:40.584Z,4.80
2018-01-17T12:22:08.102Z,4.63
2018-01-17T12:24:35.604Z,6.00
2018-01-17T12:27:03.152Z,5.07
2018-01-17T12:29:30.648Z,5.27
2018-01-17T12:31:58.161Z,5.77
2018-01-17T12:34:25.735Z,5.40
2018-01-17T12:36:53.251Z,5.23
2018-01-17T12:39:20.762Z,5.50
2018-01-17T12:41:48.272Z,5.40
2018-01-17T12:44:15.781Z,5.20
2018-01-17T12:46:43.318Z,5.50
2018-01-17T12:49:10.821Z,5.97
2018-01-17T12:51:38.336Z,5.40
2018-01-17T12:54:05.854Z,5.50
2018-01-17T12:56:33.369Z,5.40
2018-01-17T12:59:00.908Z,5.57
2018-01-17T13:01:28.414Z,5.90
2018-01-17T13:03:56.046Z,5.70
2018-01-17T13:06:23.562Z,5.77
2018-01-17T13:08:51.073Z,5.17
2018-01-17T13:11:18.623Z,5.67
2018-01-17T13:13:46.933Z,5.57
2018-01-17T13:16:14.447Z,5.60
2018-01-17T13:18:41.971Z,5.43
2018-01-17T13:21:09.479Z,5.70
2018-01-17T13:23:36.992Z,5.90
2018-01-17T13:26:04.523Z,8.90
2018-01-17T13:28:32.139Z,5.93
2018-01-17T13:30:59.644Z,5.50
2018-01-17T13:33:27.158Z,5.73
2018-01-17T13:35:54.661Z,6.00
2018-01-17T13:38:22.172Z,6.10
2018-01-17T13:40:49.684Z,5.67
2018-01-17T13:43:17.197Z,7.17
2018-01-17T13:45:44.702Z,6.50
2018-01-17T13:48:12.228Z,5.30
2018-01-17T13:50:39.783Z,5.73
2018-01-17T13:53:07.349Z,5.63
2018-01-17T13:55:34.857Z,5.90
2018-01-17T13:58:02.366Z,5.97
2018-01-17T14:00:29.921Z,6.00
2018-01-17T14:02:57.429Z,5.50
2018-01-17T14:05:25.045Z,5.90
2018-01-17T14:07:52.560Z,5.33
2018-01-17T14:10:20.164Z,5.53
2018-01-17T14:12:47.681Z,5.47
2018-01-17T14:15:15.289Z,4.93
2018-01-17T14:17:42.800Z,5.10
2018-01-17T14:20:10.330Z,5.20
2018-01-17T14:22:37.857Z,4.70
2018-01-17T14:25:05.380Z,4.67
2018-01-17T14:27:32.985Z,4.77
2018-01-17T14:30:00.484Z,4.47
2018-01-17T14:32:28.105Z,4.90
2018-01-17T14:34:55.621Z,4.40
2018-01-17T14:37:23.137Z,4.50
2018-01-17T14:39:50.681Z,3.77
2018-01-17T14:42:18.241Z,4.23
2018-01-17T14:44:45.752Z,3.80
2018-01-17T14:47:13.260Z,3.53
2018-01-17T14:49:40.760Z,4.00
2018-01-17T14:52:08.364Z,3.70
2018-01-17T14:54:35.873Z,2.90
2018-01-17T14:57:03.394Z,3.43
2018-01-17T14:59:30.920Z,3.10
2018-01-17T15:01:58.449Z,3.70
2018-01-17T15:04:26.079Z,3.60
2018-01-17T15:06:53.585Z,3.20
2018-01-17T15:09:21.096Z,3.37
2018-01-17T15:11:48.602Z,3.13
2018-01-17T15:14:16.217Z,2.90
2018-01-17T15:16:43.741Z,3.20
2018-01-17T15:19:11.265Z,2.83
2018-01-17T15:21:38.778Z,3.07
2018-01-17T15:24:06.289Z,3.80
2018-01-17T15:26:33.796Z,2.80
2018-01-17T15:29:01.302Z,3.00
2018-01-17T15:31:28.811Z,2.90
2018-01-17T15:33:56.317Z,3.10
2018-01-17T15:36:23.828Z,3.03
2018-01-17T15:38:51.334Z,2.53
2018-01-17T15:41:18.846Z,2.90
2018-01-17T15:43:46.364Z,3.37
2018-01-17T15:46:13.869Z,3.30
2018-01-17T15:48:41.382Z,3.30
2018-01-17T15:51:08.903Z,3.30
2018-01-17T15:53:36.414Z,3.40
2018-01-17T15:56:03.926Z,3.43
2018-01-17T15:58:31.440Z,3.90
2018-01-17T16:00:58.943Z,4.13
2018-01-17T16:03:26.472Z,3.73
2018-01-17T16:05:53.994Z,3.87
2018-01-17T16:08:21.493Z,3.70
2018-01-17T16:10:48.996Z,4.00
2018-01-17T16:13:16.519Z,4.70
2018-01-17T16:15:44.043Z,4.90
2018-01-17T16:18:11.574Z,4.90
2018-01-17T16:20:39.113Z,4.73
2018-01-17T16:23:06.632Z,5.03
2018-01-17T16:25:34.144Z,5.50
2018-01-17T16:28:01.672Z,5.00
2018-01-17T16:30:29.195Z,5.07
2018-01-17T16:32:56.733Z,4.63
2018-01-17T16:35:24.237Z,5.77
2018-01-17T16:37:51.753Z,5.40
2018-01-17T16:40:19.444Z,5.87
2018-01-17T16:42:46.951Z,6.00
2018-01-17T16:45:14.479Z,4.93
2018-01-17T16:47:41.993Z,5.33
2018-01-17T16:50:09.543Z,4.50
2018-01-17T16:52:37.054Z,5.23
2018-01-17T16:55:04.562Z,4.60
2018-01-17T16:57:32.071Z,4.13
2018-01-17T16:59:59.578Z,4.13
2018-01-17T17:02:27.090Z,3.83
2018-01-17T17:04:54.633Z,4.77
2018-01-17T17:07:22.150Z,4.13
2018-01-17T17:09:49.662Z,4.10
2018-01-17T17:12:17.224Z,3.80
2018-01-17T17:14:44.828Z,3.50
2018-01-17T17:17:12.346Z,3.40
2018-01-17T17:19:39.887Z,4.83
2018-01-17T17:22:07.416Z,3.53
2018-01-17T17:24:34.950Z,4.67
2018-01-17T17:27:02.485Z,4.00
2018-01-17T17:29:30.059Z,4.20
2018-01-17T17:31:57.571Z,3.37
2018-01-17T17:34:25.121Z,3.70
2018-01-17T17:36:52.630Z,4.07
2018-01-17T17:39:20.137Z,3.50
2018-01-17T17:41:47.647Z,3.47
2018-01-17T17:44:15.171Z,3.83
2018-01-17T17:46:42.792Z,3.37
2018-01-17T17:49:10.303Z,3.33
2018-01-17T17:51:37.834Z,3.87
2018-01-17T17:54:05.370Z,3.63
2018-01-17T17:56:32.896Z,4.17
2018-01-17T17:59:00.411Z,3.53
2018-01-17T18:01:27.913Z,3.60
2018-01-17T18:03:55.425Z,4.50
2018-01-17T18:06:22.936Z,4.00
2018-01-17T18:08:50.458Z,3.93
2018-01-17T18:11:17.994Z,4.00
2018-01-17T18:13:45.534Z,4.30
2018-01-17T18:16:13.065Z,4.17
2018-01-17T18:18:40.590Z,4.07
2018-01-17T18:21:08.125Z,3.83
2018-01-17T18:23:35.677Z,3.90
2018-01-17T18:26:03.198Z,3.73
2018-01-17T18:28:30.727Z,4.13
2018-01-17T18:30:58.541Z,4.43
2018-01-17T18:33:26.083Z,4.57
2018-01-17T18:35:53.596Z,5.10
2018-01-17T18:38:21.126Z,4.63
2018-01-17T18:40:48.627Z,4.83
2018-01-17T18:43:16.143Z,4.73
2018-01-17T18:45:43.661Z,5.27
2018-01-17T18:48:11.213Z,5.80
2018-01-17T18:50:38.745Z,5.80
2018-01-17T18:53:06.288Z,6.50
2018-01-17T18:55:33.809Z,6.80
2018-01-17T18:58:01.341Z,6.20
2018-01-17T19:00:28.873Z,7.17
2018-01-17T19:02:56.418Z,7.10
2018-01-17T19:05:23.921Z,7.77
2018-01-17T19:07:51.536Z,7.73
2018-01-17T19:10:19.052Z,8.40
2018-01-17T19:12:47.087Z,7.97
2018-01-17T19:15:14.738Z,7.60
2018-01-17T19:17:42.602Z,9.63
2018-01-17T19:20:10.142Z,8.70
2018-01-17T19:22:37.720Z,8.63
2018-01-17T19:25:05.247Z,10.13
2018-01-17T19:27:32.775Z,9.60
2018-01-17T19:30:00.292Z,10.00
2018-01-17T19:32:27.821Z,9.43
2018-01-17T19:34:55.383Z,9.43
2018-01-17T19:37:22.901Z,9.77
2018-01-17T19:39:50.414Z,9.13
2018-01-17T19:42:17.931Z,9.60
2018-01-17T19:44:45.470Z,9.00
2018-01-17T19:47:12.977Z,8.83
2018-01-17T19:49:40.527Z,8.80
2018-01-17T19:52:08.046Z,9.37
2018-01-17T19:54:35.566Z,9.27
2018-01-17T19:57:03.161Z,9.10
2018-01-17T19:59:30.720Z,9.00
2018-01-17T20:01:58.221Z,8.57
2018-01-17T20:04:25.747Z,10.13
2018-01-17T20:06:53.254Z,9.07
2018-01-17T20:09:20.761Z,9.23
2018-01-17T20:11:48.287Z,8.77
2018-01-17T20:14:15.809Z,8.90
2018-01-17T20:16:43.335Z,9.73
2018-01-17T20:19:10.873Z,10.03
2018-01-17T20:21:38.393Z,8.80
2018-01-17T20:24:05.911Z,9.10
2018-01-17T20:26:33.414Z,8.97
2018-01-17T20:29:00.924Z,9.43
2018-01-17T20:31:28.425Z,10.33
2018-01-17T20:33:55.950Z,9.80
2018-01-17T20:36:23.452Z,9.30
2018-01-17T20:38:50.960Z,8.50
2018-01-17T20:41:18.471Z,8.17
2018-01-17T20:43:45.977Z,8.97
2018-01-17T20:46:13.480Z,8.43
2018-01-17T20:48:40.984Z,8.77
2018-01-17T20:51:08.505Z,9.27
2018-01-17T20:53:36.022Z,8.70
2018-01-17T20:56:03.527Z,7.57
2018-01-17T20:58:31.035Z,7.73
2018-01-17T21:00:58.571Z,7.93
2018-01-17T21:03:26.086Z,7.73
2018-01-17T21:05:53.608Z,7.63
2018-01-17T21:08:21.120Z,7.73
2018-01-17T21:10:48.630Z,7.27
2018-01-17T21:13:16.138Z,7.83
2018-01-17T21:15:43.643Z,7.13
2018-01-17T21:18:11.149Z,7.47
2018-01-17T21:20:38.684Z,7.23
2018-01-17T21:23:06.188Z,7.10
2018-01-17T21:25:33.730Z,7.30
2018-01-17T21:28:01.238Z,6.90
2018-01-17T21:30:28.740Z,7.63
2018-01-17T21:32:56.250Z,6.67
2018-01-17T21:35:23.768Z,7.00
2018-01-17T21:37:51.290Z,7.20
2018-01-17T21:40:18.796Z,7.60
2018-01-17T21:45:51.823Z,6.57
2018-01-17T21:48:19.340Z,7.03
2018-01-17T21:50:46.859Z,6.83
2018-01-17T21:53:14.396Z,6.80
2018-01-17T21:55:41.908Z,7.90
2018-01-17T21:58:09.409Z,6.83
2018-01-17T22:00:36.922Z,7.23
2018-01-17T22:03:04.428Z,6.40
2018-01-17T22:05:31.936Z,6.60
2018-01-17T22:07:59.449Z,7.57
2018-01-17T22:10:26.952Z,6.43
2018-01-17T22:12:54.469Z,6.20
2018-01-17T22:15:22.001Z,6.27
2018-01-17T22:17:49.614Z,5.50
2018-01-17T22:20:17.175Z,5.63
2018-01-17T22:22:44.732Z,5.80
2018-01-17T22:25:12.230Z,5.40
2018-01-17T22:27:39.733Z,5.20
2018-01-17T22:30:07.237Z,5.17
2018-01-17T22:32:34.750Z,4.50
2018-01-17T22:35:02.257Z,5.17
2018-01-17T22:37:29.757Z,5.00
2018-01-17T22:39:57.271Z,4.33
2018-01-17T22:42:24.772Z,4.73
2018-01-17T22:44:52.285Z,4.90
2018-01-17T22:47:19.790Z,4.10
2018-01-17T22:49:47.301Z,4.70
2018-01-17T22:52:14.804Z,4.27
2018-01-17T22:54:42.338Z,4.70
2018-01-17T22:57:09.845Z,3.97
2018-01-17T22:59:37.342Z,3.87
2018-01-17T23:02:04.840Z,3.67
2018-01-17T23:04:32.340Z,3.70
